sensor_id;sensor_type;location;lat;lon;timestamp;P1;durP1;ratioP1;P2;durP2;ratioP2
49758;SDS011;70329;45.524;10.194;2024-03-08T09:41:23;18.77;;;7.65;;
49758;SDS011;70329;45.524;10.194;2024-03-08T09:43:49;19.67;;;8.07;;
49758;SDS011;70329;45.524;10.194;2024-03-08T09:46:17;25.27;;;9.38;;
49758;SDS011;70329;45.524;10.194;2024-03-08T09:48:44;19.17;;;8.50;;
49758;SDS011;70329;45.524;10.194;2024-03-08T09:51:11;87.70;;;11.68;;
49758;SDS011;70329;45.524;10.194;2024-03-08T09:53:40;19.52;;;8.13;;
49758;SDS011;70329;45.524;10.194;2024-03-08T09:58:34;19.67;;;9.32;;
49758;SDS011;70329;45.524;10.194;2024-03-08T10:01:19;21.90;;;8.55;;
49758;SDS011;70329;45.524;10.194;2024-03-08T10:03:46;19.75;;;8.55;;
49758;SDS011;70329;45.524;10.194;2024-03-08T10:06:14;15.38;;;7.57;;
49758;SDS011;70329;45.524;10.194;2024-03-08T10:08:41;18.52;;;8.15;;
49758;SDS011;70329;45.524;10.194;2024-03-08T10:11:07;16.75;;;8.50;;
49758;SDS011;70329;45.524;10.194;2024-03-08T10:13:38;24.15;;;7.70;;
49758;SDS011;70329;45.524;10.194;2024-03-08T10:16:06;17.42;;;7.05;;
49758;SDS011;70329;45.524;10.194;2024-03-08T10:18:33;17.20;;;7.10;;
49758;SDS011;70329;45.524;10.194;2024-03-08T10:23:30;20.30;;;8.13;;
49758;SDS011;70329;45.524;10.194;2024-03-08T10:25:58;14.40;;;6.28;;
49758;SDS011;70329;45.524;10.194;2024-03-08T10:28:35;16.50;;;7.13;;
49758;SDS011;70329;45.524;10.194;2024-03-08T10:31:03;15.60;;;7.05;;
49758;SDS011;70329;45.524;10.194;2024-03-08T10:33:30;16.75;;;7.05;;
49758;SDS011;70329;45.524;10.194;2024-03-08T10:35:58;17.88;;;7.50;;
49758;SDS011;70329;45.524;10.194;2024-03-08T10:38:26;18.02;;;7.13;;
49758;SDS011;70329;45.524;10.194;2024-03-08T10:40:52;19.58;;;7.55;;
49758;SDS011;70329;45.524;10.194;2024-03-08T10:43:22;15.82;;;7.22;;
49758;SDS011;70329;45.524;10.194;2024-03-08T10:45:50;15.82;;;7.63;;
49758;SDS011;70329;45.524;10.194;2024-03-08T10:48:29;13.93;;;6.95;;
49758;SDS011;70329;45.524;10.194;2024-03-08T10:50:57;17.65;;;7.72;;
49758;SDS011;70329;45.524;10.194;2024-03-08T10:53:26;17.10;;;7.30;;
49758;SDS011;70329;45.524;10.194;2024-03-08T10:55:54;16.58;;;7.78;;
49758;SDS011;70329;45.524;10.194;2024-03-08T10:58:23;22.23;;;7.22;;
49758;SDS011;70329;45.524;10.194;2024-03-08T11:00:52;62.65;;;8.82;;
49758;SDS011;70329;45.524;10.194;2024-03-08T11:06:14;14.85;;;7.55;;
49758;SDS011;70329;45.524;10.194;2024-03-08T11:08:42;16.70;;;7.68;;
49758;SDS011;70329;45.524;10.194;2024-03-08T11:11:23;18.30;;;7.63;;
49758;SDS011;70329;45.524;10.194;2024-03-08T11:13:52;16.60;;;7.40;;
49758;SDS011;70329;45.524;10.194;2024-03-08T11:22:00;16.63;;;7.25;;
49758;SDS011;70329;45.524;10.194;2024-03-08T11:24:27;18.27;;;8.02;;
49758;SDS011;70329;45.524;10.194;2024-03-08T11:27:03;24.27;;;8.18;;
49758;SDS011;70329;45.524;10.194;2024-03-08T11:29:33;15.73;;;7.70;;
49758;SDS011;70329;45.524;10.194;2024-03-08T11:32:04;14.02;;;7.43;;
49758;SDS011;70329;45.524;10.194;2024-03-08T11:34:34;17.33;;;8.27;;
49758;SDS011;70329;45.524;10.194;2024-03-08T11:37:03;18.17;;;7.40;;
49758;SDS011;70329;45.524;10.194;2024-03-08T11:39:29;18.98;;;8.35;;
49758;SDS011;70329;45.524;10.194;2024-03-08T11:41:56;15.85;;;8.07;;
49758;SDS011;70329;45.524;10.194;2024-03-08T11:44:26;17.50;;;7.60;;
49758;SDS011;70329;45.524;10.194;2024-03-08T11:46:53;18.70;;;7.80;;
49758;SDS011;70329;45.524;10.194;2024-03-08T11:49:20;20.10;;;8.73;;
49758;SDS011;70329;45.524;10.194;2024-03-08T11:51:50;18.10;;;8.20;;
49758;SDS011;70329;45.524;10.194;2024-03-08T11:54:18;15.18;;;7.60;;
49758;SDS011;70329;45.524;10.194;2024-03-08T11:56:45;17.83;;;7.63;;
49758;SDS011;70329;45.524;10.194;2024-03-08T11:59:13;16.90;;;6.82;;
49758;SDS011;70329;45.524;10.194;2024-03-08T12:01:39;14.07;;;7.38;;
49758;SDS011;70329;45.524;10.194;2024-03-08T12:06:36;16.65;;;7.25;;
49758;SDS011;70329;45.524;10.194;2024-03-08T12:09:08;19.50;;;7.70;;
49758;SDS011;70329;45.524;10.194;2024-03-08T12:11:36;14.18;;;7.65;;
49758;SDS011;70329;45.524;10.194;2024-03-08T12:14:02;14.68;;;7.55;;
49758;SDS011;70329;45.524;10.194;2024-03-08T12:18:55;14.98;;;7.20;;
49758;SDS011;70329;45.524;10.194;2024-03-08T12:21:23;15.82;;;7.38;;
49758;SDS011;70329;45.524;10.194;2024-03-08T12:26:41;15.15;;;7.43;;
49758;SDS011;70329;45.524;10.194;2024-03-08T12:29:15;17.90;;;7.70;;
49758;SDS011;70329;45.524;10.194;2024-03-08T12:31:43;13.77;;;6.60;;
49758;SDS011;70329;45.524;10.194;2024-03-08T12:34:10;14.95;;;7.35;;
49758;SDS011;70329;45.524;10.194;2024-03-08T12:36:38;15.90;;;7.35;;
49758;SDS011;70329;45.524;10.194;2024-03-08T12:39:14;16.25;;;7.28;;
49758;SDS011;70329;45.524;10.194;2024-03-08T12:41:43;15.93;;;7.63;;
49758;SDS011;70329;45.524;10.194;2024-03-08T12:44:09;15.68;;;7.05;;
49758;SDS011;70329;45.524;10.194;2024-03-08T12:46:37;18.75;;;7.85;;
49758;SDS011;70329;45.524;10.194;2024-03-08T12:49:07;15.27;;;6.80;;
49758;SDS011;70329;45.524;10.194;2024-03-08T12:51:35;16.45;;;7.65;;
49758;SDS011;70329;45.524;10.194;2024-03-08T12:54:04;18.05;;;6.70;;
49758;SDS011;70329;45.524;10.194;2024-03-08T12:56:34;15.43;;;7.38;;
49758;SDS011;70329;45.524;10.194;2024-03-08T12:59:02;14.05;;;6.88;;
49758;SDS011;70329;45.524;10.194;2024-03-08T13:01:30;12.48;;;6.90;;
49758;SDS011;70329;45.524;10.194;2024-03-08T13:03:58;16.90;;;7.00;;
49758;SDS011;70329;45.524;10.194;2024-03-08T13:06:25;11.55;;;6.50;;
49758;SDS011;70329;45.524;10.194;2024-03-08T13:08:52;13.13;;;7.00;;
49758;SDS011;70329;45.524;10.194;2024-03-08T13:11:20;13.68;;;7.30;;
49758;SDS011;70329;45.524;10.194;2024-03-08T13:13:51;14.75;;;6.72;;
49758;SDS011;70329;45.524;10.194;2024-03-08T13:16:18;19.95;;;7.65;;
49758;SDS011;70329;45.524;10.194;2024-03-08T13:18:45;13.68;;;6.97;;
49758;SDS011;70329;45.524;10.194;2024-03-08T13:21:13;14.18;;;7.30;;
49758;SDS011;70329;45.524;10.194;2024-03-08T13:23:43;11.60;;;6.30;;
49758;SDS011;70329;45.524;10.194;2024-03-08T13:26:11;11.82;;;6.80;;
49758;SDS011;70329;45.524;10.194;2024-03-08T13:28:40;15.18;;;6.82;;
49758;SDS011;70329;45.524;10.194;2024-03-08T13:31:08;17.55;;;7.05;;
49758;SDS011;70329;45.524;10.194;2024-03-08T13:33:35;14.95;;;7.65;;
49758;SDS011;70329;45.524;10.194;2024-03-08T13:36:04;14.82;;;7.13;;
49758;SDS011;70329;45.524;10.194;2024-03-08T13:38:31;14.27;;;7.20;;
49758;SDS011;70329;45.524;10.194;2024-03-08T13:40:59;16.50;;;6.72;;
49758;SDS011;70329;45.524;10.194;2024-03-08T13:43:25;12.80;;;6.57;;
49758;SDS011;70329;45.524;10.194;2024-03-08T13:45:54;17.75;;;7.22;;
49758;SDS011;70329;45.524;10.194;2024-03-08T13:48:22;15.20;;;6.43;;
49758;SDS011;70329;45.524;10.194;2024-03-08T13:50:48;20.48;;;6.85;;
49758;SDS011;70329;45.524;10.194;2024-03-08T13:53:16;14.60;;;6.97;;
49758;SDS011;70329;45.524;10.194;2024-03-08T13:55:43;16.73;;;7.25;;
49758;SDS011;70329;45.524;10.194;2024-03-08T13:58:10;14.65;;;7.00;;
49758;SDS011;70329;45.524;10.194;2024-03-08T14:00:39;14.73;;;7.05;;
49758;SDS011;70329;45.524;10.194;2024-03-08T14:03:08;14.18;;;6.97;;
49758;SDS011;70329;45.524;10.194;2024-03-08T14:05:39;16.30;;;7.15;;
49758;SDS011;70329;45.524;10.194;2024-03-08T14:08:07;34.28;;;8.40;;
49758;SDS011;70329;45.524;10.194;2024-03-08T14:10:34;17.15;;;7.75;;
49758;SDS011;70329;45.524;10.194;2024-03-08T14:13:02;14.45;;;7.40;;
49758;SDS011;70329;45.524;10.194;2024-03-08T14:15:30;17.48;;;7.35;;
49758;SDS011;70329;45.524;10.194;2024-03-08T14:17:56;14.20;;;6.43;;
49758;SDS011;70329;45.524;10.194;2024-03-08T14:22:52;14.70;;;6.40;;
49758;SDS011;70329;45.524;10.194;2024-03-08T14:25:19;17.38;;;6.63;;
49758;SDS011;70329;45.524;10.194;2024-03-08T14:27:48;14.60;;;6.95;;
49758;SDS011;70329;45.524;10.194;2024-03-08T14:30:18;19.02;;;7.13;;
49758;SDS011;70329;45.524;10.194;2024-03-08T14:32:57;15.02;;;6.95;;
49758;SDS011;70329;45.524;10.194;2024-03-08T14:35:24;17.17;;;7.28;;
49758;SDS011;70329;45.524;10.194;2024-03-08T14:37:52;13.73;;;6.75;;
49758;SDS011;70329;45.524;10.194;2024-03-08T14:40:19;15.43;;;6.75;;
49758;SDS011;70329;45.524;10.194;2024-03-08T14:42:47;13.45;;;6.35;;
49758;SDS011;70329;45.524;10.194;2024-03-08T14:45:14;15.55;;;7.28;;
49758;SDS011;70329;45.524;10.194;2024-03-08T14:47:41;19.38;;;7.05;;
49758;SDS011;70329;45.524;10.194;2024-03-08T14:50:08;15.10;;;6.78;;
49758;SDS011;70329;45.524;10.194;2024-03-08T14:52:35;13.80;;;6.65;;
49758;SDS011;70329;45.524;10.194;2024-03-08T14:55:06;13.75;;;6.70;;
49758;SDS011;70329;45.524;10.194;2024-03-08T14:57:33;15.18;;;7.30;;
49758;SDS011;70329;45.524;10.194;2024-03-08T15:00:00;13.25;;;6.85;;
49758;SDS011;70329;45.524;10.194;2024-03-08T15:02:31;13.98;;;7.13;;
49758;SDS011;70329;45.524;10.194;2024-03-08T15:05:01;16.60;;;7.25;;
49758;SDS011;70329;45.524;10.194;2024-03-08T15:07:33;16.02;;;7.35;;
49758;SDS011;70329;45.524;10.194;2024-03-08T15:10:00;12.55;;;6.63;;
49758;SDS011;70329;45.524;10.194;2024-03-08T15:12:28;20.70;;;7.72;;
49758;SDS011;70329;45.524;10.194;2024-03-08T15:14:55;19.77;;;7.85;;
49758;SDS011;70329;45.524;10.194;2024-03-08T15:17:21;13.00;;;6.53;;
49758;SDS011;70329;45.524;10.194;2024-03-08T15:19:49;14.68;;;7.05;;
49758;SDS011;70329;45.524;10.194;2024-03-08T15:22:17;16.52;;;7.35;;
49758;SDS011;70329;45.524;10.194;2024-03-08T15:27:10;17.90;;;7.60;;
49758;SDS011;70329;45.524;10.194;2024-03-08T15:29:38;14.93;;;7.15;;
49758;SDS011;70329;45.524;10.194;2024-03-08T15:32:04;14.45;;;7.10;;
49758;SDS011;70329;45.524;10.194;2024-03-08T15:34:32;16.42;;;6.95;;
49758;SDS011;70329;45.524;10.194;2024-03-08T15:37:03;16.58;;;7.07;;
49758;SDS011;70329;45.524;10.194;2024-03-08T15:39:30;15.38;;;6.32;;
49758;SDS011;70329;45.524;10.194;2024-03-08T15:41:58;13.57;;;7.05;;
49758;SDS011;70329;45.524;10.194;2024-03-08T15:44:25;14.65;;;6.57;;
49758;SDS011;70329;45.524;10.194;2024-03-08T15:46:54;13.55;;;6.43;;
49758;SDS011;70329;45.524;10.194;2024-03-08T15:49:21;15.60;;;7.15;;
49758;SDS011;70329;45.524;10.194;2024-03-08T15:51:49;16.00;;;8.00;;
49758;SDS011;70329;45.524;10.194;2024-03-08T15:54:16;14.32;;;7.05;;
49758;SDS011;70329;45.524;10.194;2024-03-08T15:59:09;14.25;;;7.35;;
49758;SDS011;70329;45.524;10.194;2024-03-08T16:01:36;18.45;;;7.43;;
49758;SDS011;70329;45.524;10.194;2024-03-08T16:04:04;15.15;;;6.78;;
49758;SDS011;70329;45.524;10.194;2024-03-08T16:06:31;14.88;;;6.97;;
49758;SDS011;70329;45.524;10.194;2024-03-08T16:08:59;18.95;;;7.10;;
49758;SDS011;70329;45.524;10.194;2024-03-08T16:11:26;14.70;;;7.18;;
49758;SDS011;70329;45.524;10.194;2024-03-08T16:13:53;16.15;;;7.22;;
49758;SDS011;70329;45.524;10.194;2024-03-08T16:16:21;16.05;;;7.10;;
49758;SDS011;70329;45.524;10.194;2024-03-08T16:18:48;16.33;;;7.20;;
49758;SDS011;70329;45.524;10.194;2024-03-08T16:21:16;16.85;;;7.20;;
49758;SDS011;70329;45.524;10.194;2024-03-08T16:23:43;15.48;;;6.75;;
49758;SDS011;70329;45.524;10.194;2024-03-08T16:26:11;15.05;;;7.65;;
49758;SDS011;70329;45.524;10.194;2024-03-08T16:28:38;20.10;;;7.40;;
49758;SDS011;70329;45.524;10.194;2024-03-08T16:31:06;16.33;;;7.25;;
49758;SDS011;70329;45.524;10.194;2024-03-08T16:33:35;15.85;;;7.47;;
49758;SDS011;70329;45.524;10.194;2024-03-08T16:36:03;16.90;;;6.97;;
49758;SDS011;70329;45.524;10.194;2024-03-08T16:38:31;13.15;;;6.88;;
49758;SDS011;70329;45.524;10.194;2024-03-08T16:41:01;17.67;;;7.60;;
49758;SDS011;70329;45.524;10.194;2024-03-08T16:43:29;13.82;;;6.13;;
49758;SDS011;70329;45.524;10.194;2024-03-08T16:45:57;14.63;;;7.00;;
49758;SDS011;70329;45.524;10.194;2024-03-08T16:48:25;17.15;;;6.90;;
49758;SDS011;70329;45.524;10.194;2024-03-08T16:50:55;17.23;;;7.45;;
49758;SDS011;70329;45.524;10.194;2024-03-08T16:55:50;20.60;;;7.85;;
49758;SDS011;70329;45.524;10.194;2024-03-08T16:58:17;15.02;;;7.22;;
49758;SDS011;70329;45.524;10.194;2024-03-08T17:00:46;13.30;;;6.43;;
49758;SDS011;70329;45.524;10.194;2024-03-08T17:03:13;17.63;;;7.20;;
49758;SDS011;70329;45.524;10.194;2024-03-08T17:05:39;16.42;;;6.88;;
49758;SDS011;70329;45.524;10.194;2024-03-08T17:08:10;16.15;;;7.20;;
49758;SDS011;70329;45.524;10.194;2024-03-08T17:10:36;18.67;;;7.50;;
49758;SDS011;70329;45.524;10.194;2024-03-08T17:13:06;18.55;;;6.43;;
49758;SDS011;70329;45.524;10.194;2024-03-08T17:15:33;19.05;;;7.53;;
49758;SDS011;70329;45.524;10.194;2024-03-08T17:18:01;17.70;;;8.45;;
49758;SDS011;70329;45.524;10.194;2024-03-08T17:20:30;16.13;;;7.50;;
49758;SDS011;70329;45.524;10.194;2024-03-08T17:23:01;19.33;;;8.30;;
49758;SDS011;70329;45.524;10.194;2024-03-08T17:25:33;20.30;;;8.55;;
49758;SDS011;70329;45.524;10.194;2024-03-08T17:28:02;15.55;;;7.43;;
49758;SDS011;70329;45.524;10.194;2024-03-08T17:30:31;18.63;;;7.65;;
49758;SDS011;70329;45.524;10.194;2024-03-08T17:33:03;15.90;;;7.85;;
49758;SDS011;70329;45.524;10.194;2024-03-08T17:35:34;16.73;;;7.05;;
49758;SDS011;70329;45.524;10.194;2024-03-08T17:38:03;15.40;;;7.15;;
49758;SDS011;70329;45.524;10.194;2024-03-08T17:40:35;12.25;;;6.28;;
49758;SDS011;70329;45.524;10.194;2024-03-08T17:43:06;16.25;;;6.97;;
49758;SDS011;70329;45.524;10.194;2024-03-08T17:45:38;15.55;;;7.15;;
49758;SDS011;70329;45.524;10.194;2024-03-08T17:48:09;15.82;;;6.80;;
49758;SDS011;70329;45.524;10.194;2024-03-08T17:50:41;18.15;;;7.10;;
49758;SDS011;70329;45.524;10.194;2024-03-08T17:53:09;15.30;;;6.57;;
49758;SDS011;70329;45.524;10.194;2024-03-08T17:55:36;15.65;;;7.05;;
49758;SDS011;70329;45.524;10.194;2024-03-08T17:58:06;15.85;;;6.78;;
49758;SDS011;70329;45.524;10.194;2024-03-08T18:00:35;17.00;;;7.40;;
49758;SDS011;70329;45.524;10.194;2024-03-08T18:05:35;14.23;;;6.93;;
49758;SDS011;70329;45.524;10.194;2024-03-08T18:08:03;11.05;;;5.72;;
49758;SDS011;70329;45.524;10.194;2024-03-08T18:10:32;14.07;;;6.80;;
49758;SDS011;70329;45.524;10.194;2024-03-08T18:13:00;15.07;;;7.40;;
49758;SDS011;70329;45.524;10.194;2024-03-08T18:15:34;13.20;;;6.70;;
49758;SDS011;70329;45.524;10.194;2024-03-08T18:18:05;14.95;;;6.72;;
49758;SDS011;70329;45.524;10.194;2024-03-08T18:20:34;12.95;;;6.35;;
49758;SDS011;70329;45.524;10.194;2024-03-08T18:23:09;19.00;;;7.03;;
49758;SDS011;70329;45.524;10.194;2024-03-08T18:25:39;13.23;;;6.40;;
49758;SDS011;70329;45.524;10.194;2024-03-08T18:28:06;12.48;;;6.25;;
49758;SDS011;70329;45.524;10.194;2024-03-08T18:30:34;14.88;;;6.72;;
49758;SDS011;70329;45.524;10.194;2024-03-08T18:33:02;15.30;;;6.18;;
49758;SDS011;70329;45.524;10.194;2024-03-08T18:35:31;14.65;;;6.50;;
49758;SDS011;70329;45.524;10.194;2024-03-08T18:37:58;15.95;;;6.70;;
49758;SDS011;70329;45.524;10.194;2024-03-08T18:40:26;11.85;;;6.22;;
49758;SDS011;70329;45.524;10.194;2024-03-08T18:42:53;15.18;;;6.13;;
49758;SDS011;70329;45.524;10.194;2024-03-08T18:45:21;12.45;;;6.03;;
49758;SDS011;70329;45.524;10.194;2024-03-08T18:47:51;13.55;;;6.40;;
49758;SDS011;70329;45.524;10.194;2024-03-08T18:50:21;12.65;;;6.13;;
49758;SDS011;70329;45.524;10.194;2024-03-08T18:52:51;15.52;;;5.80;;
49758;SDS011;70329;45.524;10.194;2024-03-08T18:55:18;10.80;;;5.90;;
49758;SDS011;70329;45.524;10.194;2024-03-08T18:57:49;13.10;;;5.90;;
49758;SDS011;70329;45.524;10.194;2024-03-08T19:00:18;13.82;;;6.10;;
49758;SDS011;70329;45.524;10.194;2024-03-08T19:02:47;12.93;;;6.30;;
49758;SDS011;70329;45.524;10.194;2024-03-08T19:05:14;13.50;;;6.30;;
49758;SDS011;70329;45.524;10.194;2024-03-08T19:07:42;12.63;;;5.65;;
49758;SDS011;70329;45.524;10.194;2024-03-08T19:10:11;16.00;;;6.00;;
49758;SDS011;70329;45.524;10.194;2024-03-08T19:12:44;12.60;;;6.15;;
49758;SDS011;70329;45.524;10.194;2024-03-08T19:15:12;14.35;;;5.72;;
49758;SDS011;70329;45.524;10.194;2024-03-08T19:17:41;14.07;;;6.28;;
49758;SDS011;70329;45.524;10.194;2024-03-08T19:20:08;15.50;;;6.03;;
49758;SDS011;70329;45.524;10.194;2024-03-08T19:22:41;13.20;;;6.35;;
49758;SDS011;70329;45.524;10.194;2024-03-08T19:25:08;14.30;;;6.50;;
49758;SDS011;70329;45.524;10.194;2024-03-08T19:27:37;12.68;;;6.25;;
49758;SDS011;70329;45.524;10.194;2024-03-08T19:30:05;14.10;;;6.22;;
49758;SDS011;70329;45.524;10.194;2024-03-08T19:32:34;16.50;;;7.25;;
49758;SDS011;70329;45.524;10.194;2024-03-08T19:35:04;14.20;;;6.72;;
49758;SDS011;70329;45.524;10.194;2024-03-08T19:37:36;13.63;;;6.60;;
49758;SDS011;70329;45.524;10.194;2024-03-08T19:40:04;13.50;;;6.53;;
49758;SDS011;70329;45.524;10.194;2024-03-08T19:42:45;13.30;;;6.28;;
49758;SDS011;70329;45.524;10.194;2024-03-08T19:45:13;14.90;;;6.60;;
49758;SDS011;70329;45.524;10.194;2024-03-08T19:47:41;16.58;;;7.57;;
49758;SDS011;70329;45.524;10.194;2024-03-08T19:50:09;17.90;;;7.03;;
49758;SDS011;70329;45.524;10.194;2024-03-08T19:52:36;14.68;;;6.60;;
49758;SDS011;70329;45.524;10.194;2024-03-08T19:57:30;16.17;;;6.43;;
49758;SDS011;70329;45.524;10.194;2024-03-08T20:00:05;14.15;;;7.10;;
49758;SDS011;70329;45.524;10.194;2024-03-08T20:02:39;15.85;;;7.25;;
49758;SDS011;70329;45.524;10.194;2024-03-08T20:05:07;18.15;;;8.15;;
49758;SDS011;70329;45.524;10.194;2024-03-08T20:07:37;13.38;;;6.63;;
49758;SDS011;70329;45.524;10.194;2024-03-08T20:10:06;14.65;;;7.53;;
49758;SDS011;70329;45.524;10.194;2024-03-08T20:12:35;22.80;;;7.53;;
49758;SDS011;70329;45.524;10.194;2024-03-08T20:15:05;17.40;;;8.23;;
49758;SDS011;70329;45.524;10.194;2024-03-08T20:17:33;16.65;;;7.45;;
49758;SDS011;70329;45.524;10.194;2024-03-08T20:20:01;13.48;;;7.13;;
49758;SDS011;70329;45.524;10.194;2024-03-08T20:22:29;17.52;;;7.55;;
49758;SDS011;70329;45.524;10.194;2024-03-08T20:27:22;17.27;;;7.45;;
49758;SDS011;70329;45.524;10.194;2024-03-08T20:29:51;17.77;;;7.63;;
49758;SDS011;70329;45.524;10.194;2024-03-08T20:32:19;17.08;;;8.07;;
49758;SDS011;70329;45.524;10.194;2024-03-08T20:34:46;19.13;;;7.93;;
49758;SDS011;70329;45.524;10.194;2024-03-08T20:37:13;15.93;;;7.60;;
49758;SDS011;70329;45.524;10.194;2024-03-08T20:39:39;22.40;;;8.50;;
49758;SDS011;70329;45.524;10.194;2024-03-08T20:42:07;16.45;;;7.80;;
49758;SDS011;70329;45.524;10.194;2024-03-08T20:47:01;20.35;;;8.38;;
49758;SDS011;70329;45.524;10.194;2024-03-08T20:49:30;25.45;;;9.95;;
49758;SDS011;70329;45.524;10.194;2024-03-08T20:51:58;25.15;;;10.40;;
49758;SDS011;70329;45.524;10.194;2024-03-08T20:54:24;21.40;;;8.95;;
49758;SDS011;70329;45.524;10.194;2024-03-08T20:59:17;20.35;;;8.98;;
49758;SDS011;70329;45.524;10.194;2024-03-08T21:01:45;24.27;;;9.13;;
49758;SDS011;70329;45.524;10.194;2024-03-08T21:06:39;20.88;;;8.23;;
49758;SDS011;70329;45.524;10.194;2024-03-08T21:09:09;16.13;;;7.88;;
49758;SDS011;70329;45.524;10.194;2024-03-08T21:11:36;17.95;;;8.30;;
49758;SDS011;70329;45.524;10.194;2024-03-08T21:14:02;16.80;;;7.93;;
49758;SDS011;70329;45.524;10.194;2024-03-08T21:16:30;24.35;;;10.15;;
49758;SDS011;70329;45.524;10.194;2024-03-08T21:18:57;18.02;;;8.45;;
49758;SDS011;70329;45.524;10.194;2024-03-08T21:21:24;18.35;;;7.78;;
49758;SDS011;70329;45.524;10.194;2024-03-08T21:23:52;15.77;;;7.68;;
49758;SDS011;70329;45.524;10.194;2024-03-08T21:26:19;22.60;;;6.85;;
49758;SDS011;70329;45.524;10.194;2024-03-08T21:28:46;15.55;;;7.00;;
49758;SDS011;70329;45.524;10.194;2024-03-08T21:31:12;14.98;;;6.78;;
49758;SDS011;70329;45.524;10.194;2024-03-08T21:36:06;16.42;;;7.00;;
49758;SDS011;70329;45.524;10.194;2024-03-08T21:38:33;14.63;;;6.30;;
49758;SDS011;70329;45.524;10.194;2024-03-08T21:41:02;15.73;;;6.53;;
49758;SDS011;70329;45.524;10.194;2024-03-08T21:43:33;14.52;;;7.10;;
49758;SDS011;70329;45.524;10.194;2024-03-08T21:48:26;13.65;;;6.25;;
49758;SDS011;70329;45.524;10.194;2024-03-08T21:53:20;15.83;;;6.90;;
49758;SDS011;70329;45.524;10.194;2024-03-08T21:55:46;13.63;;;6.68;;
49758;SDS011;70329;45.524;10.194;2024-03-08T21:58:15;14.50;;;6.18;;
49758;SDS011;70329;45.524;10.194;2024-03-08T22:00:42;14.48;;;6.60;;
49758;SDS011;70329;45.524;10.194;2024-03-08T22:03:11;14.18;;;6.75;;
49758;SDS011;70329;45.524;10.194;2024-03-08T22:08:05;14.53;;;6.50;;
49758;SDS011;70329;45.524;10.194;2024-03-08T22:10:32;15.98;;;6.70;;
49758;SDS011;70329;45.524;10.194;2024-03-08T22:12:59;14.48;;;6.60;;
49758;SDS011;70329;45.524;10.194;2024-03-08T22:15:27;15.18;;;7.32;;
49758;SDS011;70329;45.524;10.194;2024-03-08T22:17:53;12.02;;;6.35;;
49758;SDS011;70329;45.524;10.194;2024-03-08T22:20:21;14.05;;;6.20;;
49758;SDS011;70329;45.524;10.194;2024-03-08T22:22:51;12.90;;;6.50;;
49758;SDS011;70329;45.524;10.194;2024-03-08T22:25:18;12.80;;;6.00;;
49758;SDS011;70329;45.524;10.194;2024-03-08T22:27:46;15.55;;;6.15;;
49758;SDS011;70329;45.524;10.194;2024-03-08T22:30:15;16.58;;;6.30;;
49758;SDS011;70329;45.524;10.194;2024-03-08T22:32:45;12.70;;;6.22;;
49758;SDS011;70329;45.524;10.194;2024-03-08T22:35:12;12.85;;;6.20;;
49758;SDS011;70329;45.524;10.194;2024-03-08T22:37:39;13.95;;;5.95;;
49758;SDS011;70329;45.524;10.194;2024-03-08T22:40:06;11.45;;;5.88;;
49758;SDS011;70329;45.524;10.194;2024-03-08T22:42:36;11.98;;;5.82;;
49758;SDS011;70329;45.524;10.194;2024-03-08T22:45:04;12.57;;;6.07;;
49758;SDS011;70329;45.524;10.194;2024-03-08T22:47:31;11.13;;;5.65;;
49758;SDS011;70329;45.524;10.194;2024-03-08T22:50:00;12.25;;;6.15;;
49758;SDS011;70329;45.524;10.194;2024-03-08T22:52:29;12.65;;;5.65;;
49758;SDS011;70329;45.524;10.194;2024-03-08T22:54:56;10.13;;;5.45;;
49758;SDS011;70329;45.524;10.194;2024-03-08T22:57:23;11.02;;;4.93;;
49758;SDS011;70329;45.524;10.194;2024-03-08T22:59:49;11.10;;;5.18;;
49758;SDS011;70329;45.524;10.194;2024-03-08T23:02:18;10.90;;;4.88;;
49758;SDS011;70329;45.524;10.194;2024-03-08T23:04:45;10.38;;;4.57;;
49758;SDS011;70329;45.524;10.194;2024-03-08T23:07:13;15.73;;;5.70;;
49758;SDS011;70329;45.524;10.194;2024-03-08T23:09:40;12.23;;;4.78;;
49758;SDS011;70329;45.524;10.194;2024-03-08T23:12:08;11.68;;;4.90;;
49758;SDS011;70329;45.524;10.194;2024-03-08T23:14:35;10.18;;;4.75;;
49758;SDS011;70329;45.524;10.194;2024-03-08T23:17:03;9.75;;;4.47;;
49758;SDS011;70329;45.524;10.194;2024-03-08T23:19:31;9.73;;;4.85;;
49758;SDS011;70329;45.524;10.194;2024-03-08T23:22:02;12.40;;;4.82;;
49758;SDS011;70329;45.524;10.194;2024-03-08T23:24:34;10.45;;;4.43;;
49758;SDS011;70329;45.524;10.194;2024-03-08T23:27:01;8.68;;;4.40;;
49758;SDS011;70329;45.524;10.194;2024-03-08T23:29:28;10.95;;;4.60;;
49758;SDS011;70329;45.524;10.194;2024-03-08T23:34:22;11.85;;;4.30;;
49758;SDS011;70329;45.524;10.194;2024-03-08T23:36:49;7.82;;;3.58;;
49758;SDS011;70329;45.524;10.194;2024-03-08T23:39:16;6.38;;;3.45;;
49758;SDS011;70329;45.524;10.194;2024-03-08T23:41:48;8.40;;;3.78;;
49758;SDS011;70329;45.524;10.194;2024-03-08T23:44:15;8.30;;;4.20;;
49758;SDS011;70329;45.524;10.194;2024-03-08T23:46:44;7.28;;;3.70;;
49758;SDS011;70329;45.524;10.194;2024-03-08T23:49:11;7.65;;;3.53;;
49758;SDS011;70329;45.524;10.194;2024-03-08T23:51:42;7.60;;;3.17;;
49758;SDS011;70329;45.524;10.194;2024-03-08T23:54:09;6.05;;;3.08;;
49758;SDS011;70329;45.524;10.194;2024-03-08T23:56:36;7.25;;;3.30;;
49758;SDS011;70329;45.524;10.194;2024-03-08T23:59:05;8.43;;;2.90;;
